Chops — WDF9738 — position and weather

sailwx.info

Track history (hours):
 
Tides and Currents Weather Stations Pressure Air Temp Water Temp Dewpoint Dewpoint Depression Visibility Wind Speed Wind Dir Waves Ship Positions

Chops

Owner: Genesis Marine LLC, Houston, TX. More information available from US FCC via Universal Licensing System and Coast Guard Vessel Documentation Center.

Last reported at 2018-Feb-17 15:00 UTC. Time now 2018-Feb-20 05:39 UTC.
Position N 27°49' W 097°26'.

Length 9 m.

Type: Other ship. MMSI: 367508327.

Date/timePositionNaut miles runAvg speedWind from/ knotsBaromVisibWave heightAir tempDewpointWater temp
2018-Feb-17 15:00N 27°49' W 097°26'0 0.0
2018-Feb-17 14:29N 27°49' W 097°26'0 0.0
2018-Feb-17 12:13N 27°49' W 097°26'0 0.0
2018-Feb-16 16:01N 27°49' W 097°26'0 0.1
2018-Feb-16 15:58N 27°49' W 097°26'0 0.0
2018-Feb-16 14:57N 27°49' W 097°26'0 0.0
2018-Feb-16 14:28N 27°49' W 097°26'3 2.8
2018-Feb-16 13:15N 27°50' W 097°30'0 0.2
2018-Feb-16 12:57N 27°50' W 097°30'0 0.0
2018-Feb-16 12:30N 27°50' W 097°30'0 0.0
2018-Feb-16 03:20N 27°50' W 097°30'0 0.0
2018-Feb-16 02:57N 27°50' W 097°30'0 0.0
2018-Feb-16 02:30N 27°50' W 097°30'0 0.0
2018-Feb-16 01:59N 27°50' W 097°30'0 0.0
2018-Feb-16 01:27N 27°50' W 097°30'0 0.0
2018-Feb-16 00:59N 27°50' W 097°30'0 0.0
2018-Feb-16 00:26N 27°50' W 097°30'0 0.5
2018-Feb-15 23:59N 27°50' W 097°30'2 3.1
2018-Feb-15 23:26N 27°49' W 097°28'2 4.1
2018-Feb-15 22:59N 27°49' W 097°26'18 5.3
2018-Feb-15 19:38N 27°50' W 097°06'1 5.1
2018-Feb-15 19:21N 27°50' W 097°04'2 4.7
2018-Feb-15 18:58N 27°52' W 097°03'1 1.1
2018-Feb-15 18:12N 27°53' W 097°03'0 0.0
2018-Feb-15 17:51N 27°53' W 097°03'0 0.0
2018-Feb-15 17:15N 27°53' W 097°03'0 0.0
2018-Feb-15 16:59N 27°53' W 097°03'0 0.0
2018-Feb-15 16:30N 27°53' W 097°03'0 0.0
2018-Feb-15 15:59N 27°53' W 097°03'0 0.0
2018-Feb-15 15:29N 27°53' W 097°03'0 0.0
2018-Feb-15 15:00N 27°53' W 097°03'0 0.0
2018-Feb-15 14:30N 27°53' W 097°03'1 1.7
2018-Feb-15 13:59N 27°52' W 097°03'1 1.6
2018-Feb-15 13:17N 27°51' W 097°04'0 0.0
2018-Feb-15 12:54N 27°51' W 097°04'0 0.0
2018-Feb-15 12:16N 27°51' W 097°04'0 0.0
2018-Feb-15 10:00N 27°51' W 097°04'0 0.0
2018-Feb-15 09:22N 27°51' W 097°04'0 0.0
2018-Feb-15 08:55N 27°51' W 097°04'0 0.0
2018-Feb-15 08:30N 27°51' W 097°04'0 0.0
2018-Feb-15 06:22N 27°51' W 097°04'0 0.0
2018-Feb-15 05:52N 27°51' W 097°04'0 0.0
2018-Feb-15 05:29N 27°51' W 097°04'0 0.0
2018-Feb-15 05:00N 27°51' W 097°04'0 0.0
2018-Feb-15 04:27N 27°51' W 097°04'0 0.0
2018-Feb-15 03:58N 27°51' W 097°04'0 0.0
2018-Feb-15 03:30N 27°51' W 097°04'0 0.0
2018-Feb-15 03:00N 27°51' W 097°04'0 0.0
2018-Feb-15 02:29N 27°51' W 097°04'1 2.3
2018-Feb-15 01:59N 27°52' W 097°03'1 1.7
2018-Feb-15 01:30N 27°53' W 097°03'0 0.0
2018-Feb-15 00:59N 27°53' W 097°03'0 0.0
2018-Feb-15 00:29N 27°53' W 097°03'0 0.0
2018-Feb-14 23:58N 27°53' W 097°03'0 0.0
2018-Feb-14 23:29N 27°53' W 097°03'0 0.0
2018-Feb-14 23:00N 27°53' W 097°03'1 2.4
2018-Feb-14 22:30N 27°52' W 097°03'1 1.6
2018-Feb-14 21:59N 27°51' W 097°04'0 0.0
2018-Feb-14 21:30N 27°51' W 097°04'0 0.0
2018-Feb-14 21:00N 27°51' W 097°04'1 2.2
2018-Feb-14 20:29N 27°52' W 097°03'1 2.0
2018-Feb-14 20:00N 27°53' W 097°03'0 0.0
2018-Feb-14 19:30N 27°53' W 097°03'0 0.0
2018-Feb-14 18:57N 27°53' W 097°03'0 0.0
2018-Feb-14 18:30N 27°53' W 097°03'0 0.0
2018-Feb-14 17:59N 27°53' W 097°03'0 0.0
2018-Feb-14 17:29N 27°53' W 097°03'0 0.0
2018-Feb-14 16:59N 27°53' W 097°03'0 0.0
2018-Feb-14 16:30N 27°53' W 097°03'0 0.0
2018-Feb-14 15:57N 27°53' W 097°03'0 0.0
2018-Feb-14 15:30N 27°53' W 097°03'0 0.0
2018-Feb-14 14:58N 27°53' W 097°03'0 0.0
2018-Feb-14 14:29N 27°53' W 097°03'0 0.0
2018-Feb-14 13:59N 27°53' W 097°03'0 0.0
2018-Feb-14 13:28N 27°53' W 097°03'0 0.0
2018-Feb-14 12:59N 27°53' W 097°03'0 0.0
2018-Feb-14 12:29N 27°53' W 097°03'0 0.0
2018-Feb-14 11:59N 27°53' W 097°03'0 0.0
2018-Feb-14 11:28N 27°53' W 097°03'0 0.0
2018-Feb-14 11:00N 27°53' W 097°03'0 0.0
2018-Feb-14 10:29N 27°53' W 097°03'0 0.0
2018-Feb-14 10:00N 27°53' W 097°03'0 0.0
2018-Feb-14 09:30N 27°53' W 097°03'0 0.0
2018-Feb-14 08:59N 27°53' W 097°03'0 0.0
2018-Feb-14 08:29N 27°53' W 097°03'0 0.0
2018-Feb-14 07:57N 27°53' W 097°03'0 0.0
2018-Feb-14 07:30N 27°53' W 097°03'0 0.0
2018-Feb-14 07:00N 27°53' W 097°03'0 0.0
2018-Feb-14 06:29N 27°53' W 097°03'0 0.0
2018-Feb-14 05:59N 27°53' W 097°03'0 0.0
2018-Feb-14 05:30N 27°53' W 097°03'0 0.0
2018-Feb-14 05:00N 27°53' W 097°03'0 0.0
2018-Feb-14 04:29N 27°53' W 097°03'0 0.0
2018-Feb-14 03:59N 27°53' W 097°03'0 0.0
2018-Feb-14 03:29N 27°53' W 097°03'0 0.0
2018-Feb-14 02:59N 27°53' W 097°03'0 0.0
2018-Feb-14 02:30N 27°53' W 097°03'0 0.0
2018-Feb-14 02:00N 27°53' W 097°03'0 0.0
2018-Feb-14 01:30N 27°53' W 097°03'0 0.0
2018-Feb-14 01:00N 27°53' W 097°03'0 0.0
2018-Feb-14 00:29N 27°53' W 097°03'0 0.0
2018-Feb-13 23:59N 27°53' W 097°03'0 0.0
2018-Feb-13 23:29N 27°53' W 097°03'0 0.0
2018-Feb-13 23:00N 27°53' W 097°03'0 0.0
2018-Feb-13 22:30N 27°53' W 097°03'0 0.0
2018-Feb-13 22:00N 27°53' W 097°03'0 0.0
2018-Feb-13 21:29N 27°53' W 097°03'0 0.0
2018-Feb-13 20:57N 27°53' W 097°03'0 0.0
2018-Feb-13 20:29N 27°53' W 097°03'0 0.0
2018-Feb-13 19:58N 27°53' W 097°03'0 0.0
2018-Feb-13 19:30N 27°53' W 097°03'0 0.0
2018-Feb-13 19:00N 27°53' W 097°03'0 0.0
2018-Feb-13 18:30N 27°53' W 097°03'0 0.0
2018-Feb-13 17:59N 27°53' W 097°03'0 0.0
2018-Feb-13 17:29N 27°53' W 097°03'0 0.0
2018-Feb-13 16:59N 27°53' W 097°03'0 0.0
2018-Feb-13 16:30N 27°53' W 097°03'0 0.0
2018-Feb-13 15:58N 27°53' W 097°03'0 0.0
2018-Feb-13 15:29N 27°53' W 097°03'0 0.0
2018-Feb-13 14:57N 27°53' W 097°03'0 0.0
2018-Feb-13 14:28N 27°53' W 097°03'0 0.0
2018-Feb-13 14:00N 27°53' W 097°03'0 0.0
2018-Feb-13 13:30N 27°53' W 097°03'0 0.0
2018-Feb-13 12:59N 27°53' W 097°03'0 0.0
2018-Feb-13 12:29N 27°53' W 097°03'0 0.0
2018-Feb-13 11:59N 27°53' W 097°03'0 0.0
2018-Feb-13 11:30N 27°53' W 097°03'0 0.0
2018-Feb-13 11:00N 27°53' W 097°03'0 0.0
2018-Feb-13 10:30N 27°53' W 097°03'0 0.0
2018-Feb-13 09:59N 27°53' W 097°03'0 0.0
2018-Feb-13 09:29N 27°53' W 097°03'0 0.0
2018-Feb-13 09:00N 27°53' W 097°03'0 0.0
2018-Feb-13 08:29N 27°53' W 097°03'0 0.0
2018-Feb-13 07:59N 27°53' W 097°03'1 1.9
2018-Feb-13 07:29N 27°54' W 097°03'2 4.9
2018-Feb-13 06:59N 27°56' W 097°04'2 4.8
2018-Feb-13 06:30N 27°58' W 097°03'3 5.0
2018-Feb-13 06:00N 28°00' W 097°02'3 5.0
2018-Feb-13 05:30N 28°02' W 096°60'3 5.1
2018-Feb-13 04:59N 28°04' W 096°58'3 5.0
2018-Feb-13 04:29N 28°06' W 096°56'2 3.2
2018-Feb-13 04:00N 28°08' W 096°55'0 0.8
2018-Feb-13 03:29N 28°08' W 096°55'1 2.5
2018-Feb-13 02:59N 28°09' W 096°54'3 5.3
2018-Feb-13 02:30N 28°11' W 096°52'3 5.0
2018-Feb-13 02:00N 28°12' W 096°50'2 4.4
2018-Feb-13 01:28N 28°14' W 096°48'  
2018-Feb-08 15:00N 29°29' W 094°36'16 1.9
2018-Feb-08 06:30N 29°37' W 094°20'10 2.8
2018-Feb-08 03:00N 29°41' W 094°10'2 3.5
2018-Feb-08 02:30N 29°42' W 094°08'4 3.8
2018-Feb-08 01:30N 29°45' W 094°05'2 4.3
2018-Feb-08 01:00N 29°46' W 094°03'2 3.2
2018-Feb-08 00:30N 29°47' W 094°02'2 4.4
2018-Feb-08 00:00N 29°49' W 093°60'2 4.3
2018-Feb-07 23:30N 29°50' W 093°58'3 5.2
2018-Feb-07 23:00N 29°52' W 093°56'2 4.9
2018-Feb-07 22:30N 29°54' W 093°54'2 4.8
2018-Feb-07 22:00N 29°56' W 093°53'3 5.2
2018-Feb-07 21:31N 29°58' W 093°51'  
Track history (hours):
 
Tides and Currents Weather Stations Pressure Air Temp Water Temp Dewpoint Dewpoint Depression Visibility Wind Speed Wind Dir Waves Ship Positions

Chops

Owner: Genesis Marine LLC, Houston, TX. More information available from US FCC via Universal Licensing System and Coast Guard Vessel Documentation Center.

Last reported at 2018-Feb-17 15:00 UTC. Time now 2018-Feb-20 05:39 UTC.
Position N 27°49' W 097°26'.

Length 9 m.

Type: Other ship. MMSI: 367508327.

Date/timePositionNaut miles runAvg speedWind from/ knotsBaromVisibWave heightAir tempDewpointWater temp
2018-Feb-17 15:00N 27°49' W 097°26'0 0.0
2018-Feb-17 14:29N 27°49' W 097°26'0 0.0
2018-Feb-17 12:13N 27°49' W 097°26'0 0.0
2018-Feb-16 16:01N 27°49' W 097°26'0 0.1
2018-Feb-16 15:58N 27°49' W 097°26'0 0.0
2018-Feb-16 14:57N 27°49' W 097°26'0 0.0
2018-Feb-16 14:28N 27°49' W 097°26'3 2.8
2018-Feb-16 13:15N 27°50' W 097°30'0 0.2
2018-Feb-16 12:57N 27°50' W 097°30'0 0.0
2018-Feb-16 12:30N 27°50' W 097°30'0 0.0
2018-Feb-16 03:20N 27°50' W 097°30'0 0.0
2018-Feb-16 02:57N 27°50' W 097°30'0 0.0
2018-Feb-16 02:30N 27°50' W 097°30'0 0.0
2018-Feb-16 01:59N 27°50' W 097°30'0 0.0
2018-Feb-16 01:27N 27°50' W 097°30'0 0.0
2018-Feb-16 00:59N 27°50' W 097°30'0 0.0
2018-Feb-16 00:26N 27°50' W 097°30'0 0.5
2018-Feb-15 23:59N 27°50' W 097°30'2 3.1
2018-Feb-15 23:26N 27°49' W 097°28'2 4.1
2018-Feb-15 22:59N 27°49' W 097°26'18 5.3
2018-Feb-15 19:38N 27°50' W 097°06'1 5.1
2018-Feb-15 19:21N 27°50' W 097°04'2 4.7
2018-Feb-15 18:58N 27°52' W 097°03'1 1.1
2018-Feb-15 18:12N 27°53' W 097°03'0 0.0
2018-Feb-15 17:51N 27°53' W 097°03'0 0.0
2018-Feb-15 17:15N 27°53' W 097°03'0 0.0
2018-Feb-15 16:59N 27°53' W 097°03'0 0.0
2018-Feb-15 16:30N 27°53' W 097°03'0 0.0
2018-Feb-15 15:59N 27°53' W 097°03'0 0.0
2018-Feb-15 15:29N 27°53' W 097°03'0 0.0
2018-Feb-15 15:00N 27°53' W 097°03'0 0.0
2018-Feb-15 14:30N 27°53' W 097°03'1 1.7
2018-Feb-15 13:59N 27°52' W 097°03'1 1.6
2018-Feb-15 13:17N 27°51' W 097°04'0 0.0
2018-Feb-15 12:54N 27°51' W 097°04'0 0.0
2018-Feb-15 12:16N 27°51' W 097°04'0 0.0
2018-Feb-15 10:00N 27°51' W 097°04'0 0.0
2018-Feb-15 09:22N 27°51' W 097°04'0 0.0
2018-Feb-15 08:55N 27°51' W 097°04'0 0.0
2018-Feb-15 08:30N 27°51' W 097°04'0 0.0
2018-Feb-15 06:22N 27°51' W 097°04'0 0.0
2018-Feb-15 05:52N 27°51' W 097°04'0 0.0
2018-Feb-15 05:29N 27°51' W 097°04'0 0.0
2018-Feb-15 05:00N 27°51' W 097°04'0 0.0
2018-Feb-15 04:27N 27°51' W 097°04'0 0.0
2018-Feb-15 03:58N 27°51' W 097°04'0 0.0
2018-Feb-15 03:30N 27°51' W 097°04'0 0.0
2018-Feb-15 03:00N 27°51' W 097°04'0 0.0
2018-Feb-15 02:29N 27°51' W 097°04'1 2.3
2018-Feb-15 01:59N 27°52' W 097°03'1 1.7
2018-Feb-15 01:30N 27°53' W 097°03'0 0.0
2018-Feb-15 00:59N 27°53' W 097°03'0 0.0
2018-Feb-15 00:29N 27°53' W 097°03'0 0.0
2018-Feb-14 23:58N 27°53' W 097°03'0 0.0
2018-Feb-14 23:29N 27°53' W 097°03'0 0.0
2018-Feb-14 23:00N 27°53' W 097°03'1 2.4
2018-Feb-14 22:30N 27°52' W 097°03'1 1.6
2018-Feb-14 21:59N 27°51' W 097°04'0 0.0
2018-Feb-14 21:30N 27°51' W 097°04'0 0.0
2018-Feb-14 21:00N 27°51' W 097°04'1 2.2
2018-Feb-14 20:29N 27°52' W 097°03'1 2.0
2018-Feb-14 20:00N 27°53' W 097°03'0 0.0
2018-Feb-14 19:30N 27°53' W 097°03'0 0.0
2018-Feb-14 18:57N 27°53' W 097°03'0 0.0
2018-Feb-14 18:30N 27°53' W 097°03'0 0.0
2018-Feb-14 17:59N 27°53' W 097°03'0 0.0
2018-Feb-14 17:29N 27°53' W 097°03'0 0.0
2018-Feb-14 16:59N 27°53' W 097°03'0 0.0
2018-Feb-14 16:30N 27°53' W 097°03'0 0.0
2018-Feb-14 15:57N 27°53' W 097°03'0 0.0
2018-Feb-14 15:30N 27°53' W 097°03'0 0.0
2018-Feb-14 14:58N 27°53' W 097°03'0 0.0
2018-Feb-14 14:29N 27°53' W 097°03'0 0.0
2018-Feb-14 13:59N 27°53' W 097°03'0 0.0
2018-Feb-14 13:28N 27°53' W 097°03'0 0.0
2018-Feb-14 12:59N 27°53' W 097°03'0 0.0
2018-Feb-14 12:29N 27°53' W 097°03'0 0.0
2018-Feb-14 11:59N 27°53' W 097°03'0 0.0
2018-Feb-14 11:28N 27°53' W 097°03'0 0.0
2018-Feb-14 11:00N 27°53' W 097°03'0 0.0
2018-Feb-14 10:29N 27°53' W 097°03'0 0.0
2018-Feb-14 10:00N 27°53' W 097°03'0 0.0
2018-Feb-14 09:30N 27°53' W 097°03'0 0.0
2018-Feb-14 08:59N 27°53' W 097°03'0 0.0
2018-Feb-14 08:29N 27°53' W 097°03'0 0.0
2018-Feb-14 07:57N 27°53' W 097°03'0 0.0
2018-Feb-14 07:30N 27°53' W 097°03'0 0.0
2018-Feb-14 07:00N 27°53' W 097°03'0 0.0
2018-Feb-14 06:29N 27°53' W 097°03'0 0.0
2018-Feb-14 05:59N 27°53' W 097°03'0 0.0
2018-Feb-14 05:30N 27°53' W 097°03'0 0.0
2018-Feb-14 05:00N 27°53' W 097°03'0 0.0
2018-Feb-14 04:29N 27°53' W 097°03'0 0.0
2018-Feb-14 03:59N 27°53' W 097°03'0 0.0
2018-Feb-14 03:29N 27°53' W 097°03'0 0.0
2018-Feb-14 02:59N 27°53' W 097°03'0 0.0
2018-Feb-14 02:30N 27°53' W 097°03'0 0.0
2018-Feb-14 02:00N 27°53' W 097°03'0 0.0
2018-Feb-14 01:30N 27°53' W 097°03'0 0.0
2018-Feb-14 01:00N 27°53' W 097°03'0 0.0
2018-Feb-14 00:29N 27°53' W 097°03'0 0.0
2018-Feb-13 23:59N 27°53' W 097°03'0 0.0
2018-Feb-13 23:29N 27°53' W 097°03'0 0.0
2018-Feb-13 23:00N 27°53' W 097°03'0 0.0
2018-Feb-13 22:30N 27°53' W 097°03'0 0.0
2018-Feb-13 22:00N 27°53' W 097°03'0 0.0
2018-Feb-13 21:29N 27°53' W 097°03'0 0.0
2018-Feb-13 20:57N 27°53' W 097°03'0 0.0
2018-Feb-13 20:29N 27°53' W 097°03'0 0.0
2018-Feb-13 19:58N 27°53' W 097°03'0 0.0
2018-Feb-13 19:30N 27°53' W 097°03'0 0.0
2018-Feb-13 19:00N 27°53' W 097°03'0 0.0
2018-Feb-13 18:30N 27°53' W 097°03'0 0.0
2018-Feb-13 17:59N 27°53' W 097°03'0 0.0
2018-Feb-13 17:29N 27°53' W 097°03'0 0.0
2018-Feb-13 16:59N 27°53' W 097°03'0 0.0
2018-Feb-13 16:30N 27°53' W 097°03'0 0.0
2018-Feb-13 15:58N 27°53' W 097°03'0 0.0
2018-Feb-13 15:29N 27°53' W 097°03'0 0.0
2018-Feb-13 14:57N 27°53' W 097°03'0 0.0
2018-Feb-13 14:28N 27°53' W 097°03'0 0.0
2018-Feb-13 14:00N 27°53' W 097°03'0 0.0
2018-Feb-13 13:30N 27°53' W 097°03'0 0.0
2018-Feb-13 12:59N 27°53' W 097°03'0 0.0
2018-Feb-13 12:29N 27°53' W 097°03'0 0.0
2018-Feb-13 11:59N 27°53' W 097°03'0 0.0
2018-Feb-13 11:30N 27°53' W 097°03'0 0.0
2018-Feb-13 11:00N 27°53' W 097°03'0 0.0
2018-Feb-13 10:30N 27°53' W 097°03'0 0.0
2018-Feb-13 09:59N 27°53' W 097°03'0 0.0
2018-Feb-13 09:29N 27°53' W 097°03'0 0.0
2018-Feb-13 09:00N 27°53' W 097°03'0 0.0
2018-Feb-13 08:29N 27°53' W 097°03'0 0.0
2018-Feb-13 07:59N 27°53' W 097°03'1 1.9
2018-Feb-13 07:29N 27°54' W 097°03'2 4.9
2018-Feb-13 06:59N 27°56' W 097°04'2 4.8
2018-Feb-13 06:30N 27°58' W 097°03'3 5.0
2018-Feb-13 06:00N 28°00' W 097°02'3 5.0
2018-Feb-13 05:30N 28°02' W 096°60'3 5.1
2018-Feb-13 04:59N 28°04' W 096°58'3 5.0
2018-Feb-13 04:29N 28°06' W 096°56'2 3.2
2018-Feb-13 04:00N 28°08' W 096°55'0 0.8
2018-Feb-13 03:29N 28°08' W 096°55'1 2.5
2018-Feb-13 02:59N 28°09' W 096°54'3 5.3
2018-Feb-13 02:30N 28°11' W 096°52'3 5.0
2018-Feb-13 02:00N 28°12' W 096°50'2 4.4
2018-Feb-13 01:28N 28°14' W 096°48'  
2018-Feb-08 15:00N 29°29' W 094°36'16 1.9
2018-Feb-08 06:30N 29°37' W 094°20'10 2.8
2018-Feb-08 03:00N 29°41' W 094°10'2 3.5
2018-Feb-08 02:30N 29°42' W 094°08'4 3.8
2018-Feb-08 01:30N 29°45' W 094°05'2 4.3
2018-Feb-08 01:00N 29°46' W 094°03'2 3.2
2018-Feb-08 00:30N 29°47' W 094°02'2 4.4
2018-Feb-08 00:00N 29°49' W 093°60'2 4.3
2018-Feb-07 23:30N 29°50' W 093°58'3 5.2
2018-Feb-07 23:00N 29°52' W 093°56'2 4.9
2018-Feb-07 22:30N 29°54' W 093°54'2 4.8
2018-Feb-07 22:00N 29°56' W 093°53'3 5.2
2018-Feb-07 21:31N 29°58' W 093°51'  

Dump ship's entire track history